Time;durP1;ratioP1;P1;durP2;ratioP2;P2;SDS_P1;SDS_P2;PMS_P1;PMS_P2;Temp;Humidity;BMP_temperature;BMP_pressure;BME280_temperature;BME280_humidity;BME280_pressure;Samples;Min_cycle;Max_cycle;Signal;HPM_P1;HPM_P2
2022/01/29 00:00:16;;;;;;;3.67;1.97;;;4.30;72.10;;;;;;6251463;28;20447;-63
2022/01/29 00:03:19;;;;;;;2.00;1.40;;;4.30;71.80;;;;;;6251660;28;20446;-62
2022/01/29 00:06:24;;;;;;;2.93;1.80;;;4.20;71.60;;;;;;6251253;28;21042;-62
2022/01/29 00:09:27;;;;;;;2.70;1.50;;;4.20;71.50;;;;;;6251936;28;20439;-62
2022/01/29 00:12:31;;;;;;;4.20;1.23;;;4.20;71.40;;;;;;6250435;28;20860;-63
2022/01/29 00:15:34;;;;;;;2.80;2.10;;;4.10;71.50;;;;;;6251229;28;20462;-63
2022/01/29 00:18:37;;;;;;;4.20;2.30;;;4.10;71.40;;;;;;6251071;28;20478;-62
2022/01/29 00:21:41;;;;;;;2.70;2.13;;;4.10;71.50;;;;;;6250771;28;20505;-63
2022/01/29 00:24:44;;;;;;;3.30;1.93;;;4.10;71.50;;;;;;6251212;28;20463;-62
2022/01/29 00:27:47;;;;;;;2.77;1.63;;;4.00;71.20;;;;;;6250439;28;20788;-61
2022/01/29 00:30:51;;;;;;;1.70;1.60;;;4.00;71.20;;;;;;6250501;28;20533;-61
2022/01/29 00:33:54;;;;;;;3.57;1.83;;;4.00;70.90;;;;;;6249813;28;20922;-62
2022/01/29 00:36:58;;;;;;;2.20;1.63;;;4.10;71.00;;;;;;6250935;28;20478;-62
2022/01/29 00:40:01;;;;;;;1.70;1.50;;;4.00;70.50;;;;;;6250666;28;20471;-62
2022/01/29 00:43:05;;;;;;;1.83;1.60;;;4.00;70.90;;;;;;6250822;28;20615;-61
2022/01/29 00:46:08;;;;;;;5.13;1.90;;;4.00;70.80;;;;;;6250489;28;20474;-62
2022/01/29 00:49:13;;;;;;;2.30;1.50;;;4.00;69.70;;;;;;6250613;28;20463;-62
2022/01/29 00:52:17;;;;;;;1.80;1.27;;;4.00;69.60;;;;;;6240786;28;20481;-62
2022/01/29 00:55:21;;;;;;;3.30;1.97;;;4.10;69.70;;;;;;6250325;28;20482;-62
2022/01/29 00:58:24;;;;;;;2.57;2.30;;;4.10;69.70;;;;;;6250062;28;20471;-64
2022/01/29 01:01:27;;;;;;;3.33;1.97;;;4.10;70.50;;;;;;6249190;28;20482;-62
2022/01/29 01:04:30;;;;;;;2.10;1.90;;;4.00;69.60;;;;;;6248477;28;20505;-64
2022/01/29 01:07:35;;;;;;;6.07;3.00;;;4.00;70.30;;;;;;6233385;28;20991;-63
2022/01/29 01:10:38;;;;;;;5.23;2.77;;;3.90;69.90;;;;;;6230296;28;20468;-63
2022/01/29 01:13:41;;;;;;;7.03;3.07;;;3.50;71.00;;;;;;6231221;28;20522;-64
2022/01/29 01:16:45;;;;;;;3.63;2.30;;;3.50;71.50;;;;;;6225058;28;20541;-64
2022/01/29 01:19:48;;;;;;;2.50;2.20;;;3.60;71.70;;;;;;6238052;28;20491;-64
2022/01/29 01:22:52;;;;;;;6.17;2.90;;;3.60;71.40;;;;;;6241814;28;20471;-64
2022/01/29 01:25:56;;;;;;;2.70;2.23;;;3.60;71.60;;;;;;6239201;28;20504;-64
2022/01/29 01:28:59;;;;;;;2.30;2.10;;;3.60;71.80;;;;;;6243621;28;20474;-64
2022/01/29 01:32:02;;;;;;;5.00;2.50;;;3.60;72.20;;;;;;6231830;28;20483;-63
2022/01/29 01:35:13;;;;;;;7.63;3.10;;;3.60;72.20;;;;;;6234899;28;20468;-63
2022/01/29 01:38:21;;;;;;;2.67;2.43;;;3.60;72.30;;;;;;6231484;28;20464;-63
2022/01/29 01:41:26;;;;;;;3.50;2.70;;;3.60;72.00;;;;;;6227805;28;20533;-62
2022/01/29 01:44:34;;;;;;;4.80;3.33;;;3.50;72.50;;;;;;6225083;28;20510;-62
2022/01/29 01:47:38;;;;;;;2.47;2.27;;;3.50;73.20;;;;;;6224795;28;21030;-62
2022/01/29 01:50:41;;;;;;;3.50;2.90;;;3.50;73.00;;;;;;6224958;28;20984;-62
2022/01/29 01:53:46;;;;;;;2.77;2.57;;;3.50;73.30;;;;;;6225440;28;20479;-62
2022/01/29 01:56:49;;;;;;;2.50;2.30;;;3.40;73.70;;;;;;6221289;28;20480;-61
2022/01/29 01:59:52;;;;;;;3.67;2.83;;;3.30;74.10;;;;;;6224986;28;20849;-61
2022/01/29 02:02:55;;;;;;;2.67;2.30;;;3.30;74.10;;;;;;6225041;28;20545;-61
2022/01/29 02:06:00;;;;;;;5.83;2.67;;;3.30;74.20;;;;;;6225070;28;20487;-61
2022/01/29 02:09:04;;;;;;;3.70;3.10;;;3.30;74.80;;;;;;6225002;28;20479;-61
2022/01/29 02:12:09;;;;;;;3.33;3.00;;;3.20;74.50;;;;;;6224838;28;20490;-61
2022/01/29 02:15:14;;;;;;;4.37;2.93;;;3.20;74.70;;;;;;6224948;28;20908;-61
2022/01/29 02:18:17;;;;;;;7.00;3.60;;;3.20;75.30;;;;;;6225019;28;20451;-61
2022/01/29 02:21:21;;;;;;;4.30;2.93;;;3.10;75.20;;;;;;6224888;28;20550;-61
2022/01/29 02:24:26;;;;;;;4.40;2.97;;;3.10;75.50;;;;;;6224779;28;20448;-61
2022/01/29 02:27:29;;;;;;;5.53;3.37;;;3.10;75.10;;;;;;6224883;28;20483;-61
2022/01/29 02:30:34;;;;;;;4.37;2.97;;;3.10;75.30;;;;;;6225257;28;20514;-61
2022/01/29 02:33:39;;;;;;;2.87;2.40;;;3.10;75.10;;;;;;6225228;28;20471;-62
2022/01/29 02:36:44;;;;;;;2.77;2.10;;;3.00;74.80;;;;;;6225667;28;20476;-61
2022/01/29 02:39:48;;;;;;;6.00;3.00;;;3.00;75.20;;;;;;6229376;28;20489;-61
2022/01/29 02:42:53;;;;;;;5.67;2.73;;;2.90;75.00;;;;;;6229112;28;20484;-61
2022/01/29 02:45:57;;;;;;;5.20;3.00;;;2.90;75.50;;;;;;6229534;28;20478;-61
2022/01/29 02:49:00;;;;;;;3.37;2.77;;;2.90;75.80;;;;;;6228978;28;20483;-60
2022/01/29 02:52:04;;;;;;;4.37;3.50;;;2.90;75.90;;;;;;6228447;28;20480;-61
2022/01/29 02:55:09;;;;;;;4.33;2.90;;;2.80;75.80;;;;;;6228431;28;20854;-61
2022/01/29 02:58:12;;;;;;;2.80;2.33;;;2.80;76.10;;;;;;6228738;28;20471;-60
2022/01/29 03:01:15;;;;;;;3.37;2.83;;;2.80;76.50;;;;;;6224142;28;20545;-62
2022/01/29 03:04:19;;;;;;;3.80;3.27;;;2.70;76.60;;;;;;6228673;28;20491;-62
2022/01/29 03:07:22;;;;;;;4.53;3.93;;;2.80;76.60;;;;;;6228781;28;20519;-62
2022/01/29 03:10:28;;;;;;;8.97;4.60;;;2.80;76.50;;;;;;6228395;28;20479;-62
2022/01/29 03:13:31;;;;;;;6.27;4.33;;;2.80;76.10;;;;;;6228995;28;20483;-63
2022/01/29 03:16:34;;;;;;;6.63;4.30;;;2.80;75.80;;;;;;6228312;28;20526;-63
2022/01/29 03:19:38;;;;;;;8.33;4.57;;;2.70;76.10;;;;;;6228033;28;20581;-63
2022/01/29 03:22:41;;;;;;;5.63;3.70;;;2.70;75.80;;;;;;6227804;28;20502;-62
2022/01/29 03:25:45;;;;;;;6.43;4.00;;;2.60;76.00;;;;;;6227814;28;20487;-63
2022/01/29 03:28:48;;;;;;;6.60;3.87;;;2.60;76.20;;;;;;6227954;28;20480;-62
2022/01/29 03:31:51;;;;;;;9.43;5.13;;;2.60;76.40;;;;;;6228972;28;20529;-63
2022/01/29 03:34:55;;;;;;;5.17;3.83;;;2.50;76.20;;;;;;6238270;28;20471;-63
2022/01/29 03:37:58;;;;;;;6.30;3.63;;;2.50;76.70;;;;;;6228016;28;20471;-63
2022/01/29 03:41:02;;;;;;;4.30;3.07;;;2.50;76.60;;;;;;6235410;28;20525;-63
2022/01/29 03:44:07;;;;;;;3.90;2.50;;;2.50;76.50;;;;;;6238599;28;20478;-63
2022/01/29 03:47:10;;;;;;;2.20;2.00;;;2.50;76.50;;;;;;6235302;28;20460;-63
2022/01/29 03:50:14;;;;;;;4.90;2.70;;;2.40;76.30;;;;;;6246053;28;20821;-64
2022/01/29 03:53:17;;;;;;;3.50;1.80;;;2.40;76.30;;;;;;6251671;28;20865;-63
2022/01/29 03:56:21;;;;;;;3.30;2.87;;;2.30;76.30;;;;;;6252367;28;20475;-62
2022/01/29 03:59:24;;;;;;;4.40;3.50;;;2.20;77.60;;;;;;6252344;28;20498;-63
2022/01/29 04:02:27;;;;;;;6.80;2.97;;;2.10;77.50;;;;;;6252039;28;20548;-63
2022/01/29 04:05:31;;;;;;;6.23;3.53;;;2.10;78.10;;;;;;6242733;28;20466;-63
2022/01/29 04:08:40;;;;;;;5.47;3.60;;;2.10;78.40;;;;;;6251034;28;20479;-63
2022/01/29 04:11:44;;;;;;;5.23;3.00;;;2.20;79.50;;;;;;6251249;28;20533;-64
2022/01/29 04:14:47;;;;;;;3.20;2.60;;;2.20;78.80;;;;;;6250987;28;20540;-63
2022/01/29 04:17:50;;;;;;;4.47;3.00;;;2.10;78.80;;;;;;6251144;28;20479;-63
2022/01/29 04:20:53;;;;;;;4.20;3.67;;;2.20;78.80;;;;;;6250830;28;20482;-63
2022/01/29 04:23:57;;;;;;;4.40;3.03;;;2.10;78.70;;;;;;6250732;28;20471;-63
2022/01/29 04:27:04;;;;;;;4.33;3.37;;;2.10;78.70;;;;;;6251378;28;20471;-62
2022/01/29 04:30:12;;;;;;;4.43;3.37;;;2.10;78.90;;;;;;6251296;28;20533;-63
2022/01/29 04:33:28;;;;;;;6.33;3.60;;;2.00;79.10;;;;;;6250523;28;20465;-63
2022/01/29 04:36:31;;;;;;;5.27;3.73;;;2.00;79.40;;;;;;6250319;28;20763;-62
2022/01/29 04:39:34;;;;;;;5.93;3.73;;;2.00;79.60;;;;;;6250849;28;20590;-62
2022/01/29 04:42:39;;;;;;;6.40;3.73;;;2.00;79.60;;;;;;6250892;28;20509;-63
2022/01/29 04:45:42;;;;;;;6.30;2.77;;;2.00;79.80;;;;;;6250401;28;20808;-63
2022/01/29 04:48:45;;;;;;;4.73;3.50;;;2.00;79.80;;;;;;6250322;28;20554;-63
2022/01/29 04:51:48;;;;;;;11.97;3.80;;;2.10;80.00;;;;;;6250769;28;20532;-63
2022/01/29 04:54:51;;;;;;;3.73;2.70;;;2.00;79.80;;;;;;6250685;28;20546;-63
2022/01/29 04:57:56;;;;;;;4.13;2.63;;;2.00;79.80;;;;;;6250558;28;20509;-64
2022/01/29 05:00:59;;;;;;;3.67;3.00;;;2.00;79.50;;;;;;6249613;28;20497;-62
2022/01/29 05:04:03;;;;;;;3.23;2.27;;;1.80;79.80;;;;;;6250561;28;20471;-62
2022/01/29 05:07:06;;;;;;;6.37;2.63;;;1.80;80.10;;;;;;6246307;28;20475;-62
2022/01/29 05:10:10;;;;;;;2.47;2.27;;;1.80;79.70;;;;;;6250250;28;20544;-63
2022/01/29 05:13:19;;;;;;;7.17;2.57;;;1.90;79.80;;;;;;6250252;28;20485;-63
2022/01/29 05:16:41;;;;;;;4.80;2.43;;;1.80;79.60;;;;;;6250363;28;20471;-63
2022/01/29 05:29:48;;;;;;;3.00;2.70;;;1.90;79.50;;;;;;6249625;28;20475;-64
2022/01/29 05:32:51;;;;;;;3.33;2.73;;;1.90;79.70;;;;;;6249889;28;20482;-63
2022/01/29 05:35:54;;;;;;;3.40;3.10;;;1.80;79.50;;;;;;6250275;28;20474;-63
2022/01/29 05:38:57;;;;;;;3.43;2.63;;;1.80;79.90;;;;;;6249418;28;20467;-63
2022/01/29 05:42:00;;;;;;;3.77;2.50;;;1.80;79.90;;;;;;6249428;28;20475;-63
2022/01/29 05:45:06;;;;;;;3.33;3.03;;;1.70;79.80;;;;;;6249708;28;20467;-64
2022/01/29 05:48:09;;;;;;;8.20;4.37;;;1.70;80.30;;;;;;6249433;28;20544;-64
2022/01/29 05:51:13;;;;;;;4.47;3.27;;;1.70;80.70;;;;;;6249222;28;20976;-64
2022/01/29 05:54:16;;;;;;;4.10;3.70;;;1.70;80.70;;;;;;6249609;28;20459;-62
2022/01/29 05:57:20;;;;;;;4.60;3.80;;;1.70;80.50;;;;;;6249444;28;20846;-62
2022/01/29 06:00:24;;;;;;;6.17;3.60;;;1.70;80.70;;;;;;6250078;28;20447;-62
2022/01/29 06:03:27;;;;;;;3.80;3.43;;;1.70;80.70;;;;;;6249059;28;20829;-62
2022/01/29 06:06:31;;;;;;;4.20;2.53;;;1.60;81.00;;;;;;6249273;28;20953;-62
2022/01/29 06:09:34;;;;;;;3.37;3.07;;;1.60;81.10;;;;;;6249709;28;20497;-63
2022/01/29 06:12:37;;;;;;;3.80;3.20;;;1.50;81.60;;;;;;6248887;28;20533;-65
2022/01/29 06:15:43;;;;;;;7.90;3.07;;;1.50;81.50;;;;;;6254386;28;20475;-62
2022/01/29 06:18:46;;;;;;;4.83;3.30;;;1.50;81.80;;;;;;6253914;28;20466;-62
2022/01/29 06:21:49;;;;;;;4.20;3.90;;;1.50;81.60;;;;;;6253624;28;20479;-63
2022/01/29 06:24:52;;;;;;;3.93;3.47;;;1.50;81.60;;;;;;6253782;28;20870;-63
2022/01/29 06:27:56;;;;;;;6.93;4.03;;;1.50;81.30;;;;;;6253612;28;20983;-63
2022/01/29 06:31:02;;;;;;;5.63;3.57;;;1.50;81.30;;;;;;6253443;28;20475;-63
2022/01/29 06:34:05;;;;;;;4.57;3.37;;;1.50;81.40;;;;;;6253471;28;20479;-64
2022/01/29 06:37:08;;;;;;;8.07;4.47;;;1.50;81.60;;;;;;6254004;28;20558;-63
2022/01/29 06:40:12;;;;;;;4.57;3.50;;;1.50;81.30;;;;;;6253167;28;20828;-64
2022/01/29 06:43:16;;;;;;;4.17;3.07;;;1.50;81.30;;;;;;6253535;28;20475;-63
2022/01/29 06:46:20;;;;;;;10.03;4.17;;;1.50;82.00;;;;;;6253080;28;20471;-63
2022/01/29 06:49:23;;;;;;;6.70;5.00;;;1.50;80.90;;;;;;6253123;28;20562;-63
2022/01/29 06:52:26;;;;;;;7.83;4.27;;;1.60;81.00;;;;;;6253413;28;20498;-63
2022/01/29 06:55:29;;;;;;;10.67;4.77;;;1.60;81.10;;;;;;6253085;28;20783;-63
2022/01/29 06:58:33;;;;;;;12.60;5.63;;;1.70;81.10;;;;;;6253077;28;20536;-62
2022/01/29 07:01:57;;;;;;;6.40;3.77;;;1.60;80.80;;;;;;6252503;28;20609;-63
2022/01/29 07:05:00;;;;;;;5.10;3.47;;;1.70;81.10;;;;;;6252878;28;20478;-63
2022/01/29 07:08:04;;;;;;;8.90;4.50;;;1.60;81.20;;;;;;6252730;28;20483;-62
2022/01/29 07:11:07;;;;;;;7.23;4.77;;;1.60;81.40;;;;;;6252457;28;20479;-63
2022/01/29 07:14:16;;;;;;;9.33;6.20;;;1.60;81.20;;;;;;6252839;28;20536;-63
2022/01/29 07:17:22;;;;;;;14.27;6.00;;;1.70;81.10;;;;;;6248024;28;20479;-63
2022/01/29 07:20:25;;;;;;;8.57;4.20;;;1.80;81.00;;;;;;6252066;28;20952;-63
2022/01/29 07:23:28;;;;;;;9.57;4.87;;;1.80;80.80;;;;;;6251680;28;20502;-64
2022/01/29 07:26:32;;;;;;;7.20;5.67;;;2.00;80.60;;;;;;6252330;28;20482;-64
2022/01/29 07:29:35;;;;;;;9.17;5.20;;;2.00;80.20;;;;;;6251888;28;20820;-64
2022/01/29 07:32:44;;;;;;;6.07;4.40;;;2.00;79.80;;;;;;6234038;28;20472;-64
2022/01/29 07:35:48;;;;;;;8.13;4.60;;;2.20;80.00;;;;;;6227001;28;20514;-63
2022/01/29 07:38:51;;;;;;;7.50;5.03;;;2.30;79.50;;;;;;6230450;28;20485;-62
2022/01/29 07:41:55;;;;;;;9.77;6.17;;;2.40;79.40;;;;;;6251860;28;20660;-63
2022/01/29 07:44:58;;;;;;;7.43;5.77;;;2.50;78.90;;;;;;6252455;28;20479;-63
2022/01/29 07:48:02;;;;;;;8.27;6.00;;;2.60;78.90;;;;;;6251462;28;20482;-63
2022/01/29 07:51:05;;;;;;;8.77;5.43;;;2.70;79.50;;;;;;6251451;28;20518;-64
2022/01/29 07:54:08;;;;;;;9.33;6.67;;;2.80;78.80;;;;;;6251866;28;20482;-64
2022/01/29 07:57:12;;;;;;;9.03;5.30;;;2.90;78.10;;;;;;6251759;28;20466;-64
2022/01/29 08:00:15;;;;;;;6.07;4.97;;;3.00;77.90;;;;;;6251426;28;20466;-65
2022/01/29 08:03:20;;;;;;;9.60;6.07;;;3.10;77.40;;;;;;6251815;28;20435;-65
2022/01/29 08:06:26;;;;;;;11.43;5.63;;;3.20;76.60;;;;;;6252462;28;20449;-64
2022/01/29 08:09:29;;;;;;;9.33;5.47;;;3.40;76.30;;;;;;6251599;28;20434;-65
2022/01/29 08:12:32;;;;;;;9.20;6.33;;;3.60;75.90;;;;;;6251679;28;20467;-64
2022/01/29 08:15:35;;;;;;;8.83;5.70;;;3.90;75.60;;;;;;6250933;28;20471;-64
2022/01/29 08:18:41;;;;;;;9.27;5.90;;;4.20;74.70;;;;;;6247197;28;20475;-64
2022/01/29 08:21:44;;;;;;;7.63;5.10;;;4.50;73.20;;;;;;6247696;28;20827;-64
2022/01/29 08:24:47;;;;;;;6.17;4.40;;;4.70;72.10;;;;;;6237226;28;20541;-64
2022/01/29 08:27:51;;;;;;;6.20;4.93;;;5.00;71.90;;;;;;6239126;28;20960;-65
2022/01/29 08:30:54;;;;;;;9.13;5.30;;;5.30;70.90;;;;;;6239686;28;20488;-65
2022/01/29 08:33:58;;;;;;;6.17;5.00;;;5.70;70.00;;;;;;6238480;28;20490;-65
2022/01/29 08:37:03;;;;;;;5.70;4.10;;;6.10;67.40;;;;;;6237943;28;20479;-65
2022/01/29 08:40:08;;;;;;;6.47;4.93;;;6.40;65.70;;;;;;6237823;28;20474;-64
2022/01/29 08:43:11;;;;;;;6.73;4.00;;;6.70;65.00;;;;;;6246228;28;20475;-65
2022/01/29 08:46:14;;;;;;;5.33;4.53;;;6.80;63.80;;;;;;6238873;28;20471;-64
2022/01/29 08:49:19;;;;;;;7.17;4.87;;;6.80;64.00;;;;;;6236317;28;20464;-64
2022/01/29 08:52:22;;;;;;;7.57;4.67;;;6.90;64.00;;;;;;6241749;28;20501;-65
2022/01/29 08:55:26;;;;;;;9.03;5.90;;;7.00;62.70;;;;;;6249292;28;20487;-64
2022/01/29 08:58:29;;;;;;;18.77;6.67;;;7.00;62.80;;;;;;6234424;28;20482;-65
2022/01/29 09:01:32;;;;;;;12.20;6.80;;;6.70;62.90;;;;;;6234677;28;20995;-65
2022/01/29 09:04:37;;;;;;;6.00;4.40;;;6.80;63.20;;;;;;6240601;28;20472;-65
2022/01/29 09:07:40;;;;;;;6.67;4.40;;;7.00;61.00;;;;;;6236342;28;20475;-65
2022/01/29 09:10:43;;;;;;;7.17;4.80;;;7.10;59.80;;;;;;6238687;28;20523;-65
2022/01/29 09:13:46;;;;;;;5.23;3.70;;;7.50;59.10;;;;;;6241152;28;20475;-65
2022/01/29 09:16:50;;;;;;;11.40;4.93;;;8.00;58.00;;;;;;6229369;28;20787;-64
2022/01/29 09:19:55;;;;;;;7.20;3.70;;;8.40;56.60;;;;;;6231053;28;20796;-64
2022/01/29 09:22:59;;;;;;;8.63;3.87;;;8.70;55.20;;;;;;6221158;28;20944;-64
2022/01/29 09:26:02;;;;;;;8.33;4.07;;;8.90;53.70;;;;;;6239801;28;20482;-64
2022/01/29 09:29:05;;;;;;;5.90;4.07;;;9.00;53.70;;;;;;6238936;28;20968;-64
2022/01/29 09:32:09;;;;;;;8.20;4.80;;;9.10;52.90;;;;;;6232464;28;20506;-64
2022/01/29 09:35:14;;;;;;;8.03;4.00;;;9.00;53.20;;;;;;6228534;28;20809;-64
2022/01/29 09:38:17;;;;;;;8.43;4.37;;;9.00;53.00;;;;;;6233143;28;20472;-64
2022/01/29 09:41:21;;;;;;;9.70;3.97;;;8.90;52.40;;;;;;6238251;28;20475;-65
2022/01/29 09:44:25;;;;;;;13.53;4.53;;;9.10;52.20;;;;;;6238007;28;20488;-65
2022/01/29 09:47:29;;;;;;;4.43;3.93;;;9.10;51.40;;;;;;6242537;28;20467;-65
2022/01/29 09:50:36;;;;;;;11.00;4.57;;;9.30;51.40;;;;;;6246874;28;20782;-65
2022/01/29 09:53:40;;;;;;;8.30;4.17;;;9.60;51.00;;;;;;6232555;28;20976;-65
2022/01/29 09:56:43;;;;;;;6.73;3.50;;;9.80;50.60;;;;;;6230785;28;20476;-65
2022/01/29 09:59:47;;;;;;;9.60;4.47;;;10.10;49.30;;;;;;6230055;28;21018;-65
2022/01/29 10:03:16;;;;;;;8.03;4.67;;;10.50;48.40;;;;;;6230139;28;20483;-64
2022/01/29 10:06:20;;;;;;;6.43;3.63;;;11.10;47.30;;;;;;6230376;28;20444;-64
2022/01/29 10:09:33;;;;;;;4.47;3.67;;;11.30;45.50;;;;;;6230810;28;20482;-64
2022/01/29 10:12:38;;;;;;;5.87;4.07;;;11.60;46.20;;;;;;6229734;28;20467;-64
2022/01/29 10:15:42;;;;;;;11.50;4.40;;;12.30;44.70;;;;;;6229636;28;20470;-64
2022/01/29 10:18:48;;;;;;;7.37;4.33;;;13.70;42.50;;;;;;6229563;28;20486;-65
2022/01/29 10:21:52;;;;;;;5.97;4.40;;;15.00;40.10;;;;;;6229416;28;20475;-65
2022/01/29 10:24:55;;;;;;;12.00;4.80;;;15.00;39.00;;;;;;6237721;28;20940;-65
2022/01/29 10:28:15;;;;;;;4.10;3.70;;;15.30;37.70;;;;;;6232085;28;20482;-65
2022/01/29 10:31:19;;;;;;;5.90;4.20;;;15.40;36.90;;;;;;6234222;28;20471;-64
2022/01/29 10:34:24;;;;;;;7.23;5.10;;;15.50;36.40;;;;;;6241989;28;20478;-65
2022/01/29 10:37:29;;;;;;;8.97;4.60;;;16.40;35.40;;;;;;6234863;28;20989;-65
2022/01/29 11:07:13;;;;;;;6.80;2.57;;;14.30;33.70;;;;;;6188460;28;20473;-64
2022/01/29 11:10:18;;;;;;;3.90;2.97;;;17.40;32.90;;;;;;6246756;28;20485;-64
2022/01/29 11:13:22;;;;;;;9.13;4.93;;;21.40;28.40;;;;;;6301053;28;20966;-63
2022/01/29 11:16:25;;;;;;;7.17;4.90;;;21.50;26.00;;;;;;6301456;28;20268;-64
2022/01/29 11:19:28;;;;;;;5.63;3.47;;;21.20;26.10;;;;;;6301003;28;20246;-64
2022/01/29 11:22:35;;;;;;;3.10;2.80;;;22.80;25.80;;;;;;6301746;28;20230;-64
2022/01/29 11:25:40;;;;;;;4.80;2.90;;;23.90;24.10;;;;;;6301280;28;20608;-64
2022/01/29 11:28:43;;;;;;;9.07;4.07;;;25.60;23.00;;;;;;6289834;28;20243;-64
2022/01/29 11:31:46;;;;;;;14.90;8.67;;;27.60;21.50;;;;;;6300799;28;20226;-64
2022/01/29 11:35:07;;;;;;;8.07;6.00;;;29.20;20.30;;;;;;6301167;28;20360;-64
2022/01/29 11:38:11;;;;;;;6.33;3.30;;;30.50;19.10;;;;;;6299407;28;20226;-64
2022/01/29 11:41:15;;;;;;;5.83;3.43;;;31.60;17.70;;;;;;6301066;28;20226;-64
2022/01/29 11:44:29;;;;;;;8.53;6.83;;;32.30;16.70;;;;;;6301340;28;20261;-64
2022/01/29 11:47:48;;;;;;;4.53;3.63;;;32.00;16.20;;;;;;6301301;28;20621;-64
2022/01/29 12:03:56;;;;;;;3.63;3.22;;;32.70;15.40;;;;;;6320930;28;20591;-70
2022/01/29 12:07:13;;;;;;;3.70;3.35;;;34.70;14.40;;;;;;6321622;27;20209;-70
2022/01/29 12:10:16;;;;;;;5.90;4.90;;;34.50;14.00;;;;;;6323302;28;20243;-70
2022/01/29 12:13:20;;;;;;;5.28;3.97;;;34.70;13.80;;;;;;6308546;28;20240;-68
2022/01/29 12:16:48;;;;;;;5.43;3.00;;;33.50;13.90;;;;;;6307730;28;20701;-67
2022/01/29 12:19:59;;;;;;;22.90;18.02;;;32.60;14.50;;;;;;6302545;28;20223;-66
2022/01/29 12:23:06;;;;;;;20.57;16.67;;;31.60;14.80;;;;;;6319953;28;20227;-68
2022/01/29 12:26:09;;;;;;;4.20;3.07;;;31.40;15.10;;;;;;6319632;28;20243;-68
2022/01/29 12:29:12;;;;;;;3.67;3.00;;;30.10;15.30;;;;;;6321490;28;20230;-67
2022/01/29 12:32:15;;;;;;;4.27;3.30;;;28.20;16.00;;;;;;6319797;28;20243;-67
2022/01/29 12:35:21;;;;;;;5.40;3.00;;;26.40;17.30;;;;;;6319533;28;20226;-67
2022/01/29 12:38:27;;;;;;;5.63;3.30;;;24.90;18.30;;;;;;6320475;28;20736;-67
2022/01/29 12:41:37;;;;;;;2.90;2.60;;;23.20;19.30;;;;;;6320256;28;20230;-67
2022/01/29 12:44:40;;;;;;;2.57;2.37;;;21.70;20.20;;;;;;6320187;28;20230;-67
2022/01/29 12:47:43;;;;;;;3.17;2.87;;;20.40;21.20;;;;;;6294948;28;20699;-67
2022/01/29 12:50:48;;;;;;;3.57;2.80;;;19.20;22.00;;;;;;6294375;28;20245;-67
2022/01/29 12:53:57;;;;;;;6.67;3.20;;;18.50;23.00;;;;;;6295089;28;20477;-66
2022/01/29 12:57:00;;;;;;;4.00;3.20;;;17.50;23.90;;;;;;6299959;28;21043;-66
2022/01/29 13:00:08;;;;;;;3.60;2.63;;;16.40;24.80;;;;;;6295031;28;20476;-67
2022/01/29 13:03:13;;;;;;;6.40;3.83;;;15.50;25.80;;;;;;6309102;28;20548;-66
2022/01/29 13:06:18;;;;;;;2.83;2.23;;;14.40;26.70;;;;;;6303220;28;20514;-66
2022/01/29 13:09:23;;;;;;;3.77;2.60;;;13.60;27.90;;;;;;6303037;28;20465;-66
2022/01/29 13:12:26;;;;;;;2.57;2.37;;;13.40;28.50;;;;;;6302508;28;20533;-65
2022/01/29 13:15:41;;;;;;;4.60;3.63;;;13.40;28.70;;;;;;6302637;28;20836;-68
2022/01/29 13:18:44;;;;;;;3.73;2.80;;;13.70;28.60;;;;;;6302943;28;20465;-67
2022/01/29 13:21:50;;;;;;;3.63;3.03;;;13.60;28.50;;;;;;6277448;28;20951;-67
2022/01/29 13:25:01;;;;;;;3.00;2.27;;;13.30;29.00;;;;;;6277728;28;20446;-68
2022/01/29 13:28:06;;;;;;;3.37;2.40;;;12.80;29.40;;;;;;6277655;28;20458;-67
2022/01/29 13:31:09;;;;;;;4.70;3.13;;;12.60;29.90;;;;;;6277853;28;20474;-69
2022/01/29 13:34:26;;;;;;;3.87;3.40;;;12.40;30.00;;;;;;6277630;28;23316;-68
2022/01/29 13:37:32;;;;;;;5.77;3.10;;;12.20;30.30;;;;;;6277698;28;20462;-68
2022/01/29 13:40:38;;;;;;;3.40;2.80;;;12.10;31.00;;;;;;6281257;28;20508;-67
2022/01/29 13:43:43;;;;;;;2.83;2.63;;;11.60;31.20;;;;;;6278417;28;20470;-67
2022/01/29 13:47:04;;;;;;;4.27;3.13;;;11.50;31.70;;;;;;6302197;28;20506;-66
2022/01/29 13:50:27;;;;;;;16.67;11.90;;;11.80;32.00;;;;;;6303154;28;20461;-66
2022/01/29 13:53:43;;;;;;;21.20;15.40;;;12.50;31.60;;;;;;6302435;28;20478;-65
2022/01/29 13:56:48;;;;;;;6.27;4.23;;;12.70;31.70;;;;;;6302515;28;20607;-65
2022/01/29 14:00:01;;;;;;;4.70;3.20;;;12.60;31.00;;;;;;6302077;28;20473;-65
2022/01/29 14:03:04;;;;;;;5.30;2.60;;;12.30;32.20;;;;;;6301583;28;20473;-64
2022/01/29 14:06:33;;;;;;;4.73;2.57;;;11.90;32.40;;;;;;6302169;28;20481;-65
2022/01/29 14:09:42;;;;;;;4.13;2.80;;;11.70;32.70;;;;;;6301682;28;20465;-64
2022/01/29 14:12:49;;;;;;;6.80;3.40;;;11.40;33.30;;;;;;6300983;28;20542;-64
2022/01/29 14:15:52;;;;;;;3.33;3.03;;;11.30;33.80;;;;;;6300629;28;20479;-64
2022/01/29 14:18:56;;;;;;;5.73;3.03;;;11.30;34.40;;;;;;6300623;28;20441;-64
2022/01/29 14:22:01;;;;;;;10.20;3.00;;;11.00;34.30;;;;;;6277051;28;20462;-64
2022/01/29 14:25:07;;;;;;;4.47;3.13;;;10.70;35.00;;;;;;6276713;28;20442;-64
2022/01/29 14:28:11;;;;;;;5.27;3.70;;;10.50;35.80;;;;;;6277477;28;20446;-63
2022/01/29 14:31:14;;;;;;;3.53;3.10;;;10.60;35.80;;;;;;6275786;28;20539;-64
2022/01/29 14:34:17;;;;;;;4.33;3.50;;;10.40;35.80;;;;;;6276440;28;20947;-64
2022/01/29 14:37:21;;;;;;;5.43;4.50;;;10.30;36.30;;;;;;6276201;28;20477;-63
2022/01/29 14:40:25;;;;;;;5.70;5.10;;;10.40;36.80;;;;;;6276211;28;20811;-64
2022/01/29 14:43:28;;;;;;;5.10;4.23;;;10.50;37.00;;;;;;6276113;28;20466;-64
2022/01/29 14:46:37;;;;;;;7.97;4.13;;;10.50;36.80;;;;;;6276272;28;20485;-65
2022/01/29 14:49:41;;;;;;;4.00;3.67;;;10.60;37.20;;;;;;6276470;28;20517;-64
2022/01/29 14:52:44;;;;;;;3.70;3.30;;;10.40;37.10;;;;;;6275920;28;20470;-64
2022/01/29 14:55:50;;;;;;;6.43;3.63;;;10.50;37.30;;;;;;6276310;28;20484;-63
2022/01/29 14:58:53;;;;;;;3.80;3.50;;;10.40;37.70;;;;;;6275956;28;20474;-64
2022/01/29 15:01:57;;;;;;;6.83;4.10;;;10.50;37.30;;;;;;6288708;28;20761;-64
2022/01/29 15:05:02;;;;;;;4.50;4.10;;;10.60;37.40;;;;;;6300090;28;21012;-64
2022/01/29 15:08:06;;;;;;;5.67;4.00;;;10.60;38.00;;;;;;6300295;28;20953;-63
2022/01/29 15:11:11;;;;;;;6.30;3.90;;;10.50;38.00;;;;;;6300829;28;20476;-65
2022/01/29 15:14:34;;;;;;;5.87;4.70;;;10.40;38.90;;;;;;6281724;28;20462;-64
2022/01/29 15:17:37;;;;;;;8.00;4.43;;;10.30;39.30;;;;;;6275305;28;20473;-66
2022/01/29 15:20:42;;;;;;;10.20;5.37;;;10.20;39.60;;;;;;6275319;28;20761;-66
2022/01/29 15:23:45;;;;;;;6.60;3.80;;;10.10;39.80;;;;;;6274721;28;20474;-66
2022/01/29 15:26:50;;;;;;;7.30;4.73;;;10.00;39.60;;;;;;6274526;28;20524;-66
2022/01/29 15:29:53;;;;;;;5.37;4.67;;;9.90;40.70;;;;;;6274757;28;20791;-65
2022/01/29 15:32:56;;;;;;;4.97;4.50;;;9.80;40.80;;;;;;6273864;28;20482;-65
2022/01/29 15:36:00;;;;;;;7.90;5.60;;;9.80;41.20;;;;;;6273335;28;20481;-65
2022/01/29 15:39:04;;;;;;;8.13;5.53;;;9.70;41.20;;;;;;6273549;28;20483;-65
2022/01/29 15:42:28;;;;;;;7.70;5.10;;;9.60;41.10;;;;;;6273381;28;20883;-66
2022/01/29 15:45:36;;;;;;;12.53;10.70;;;9.40;40.80;;;;;;6276652;28;20784;-66
2022/01/29 15:48:40;;;;;;;12.60;8.10;;;9.10;40.70;;;;;;6273797;28;20466;-66
2022/01/29 15:51:43;;;;;;;8.13;5.20;;;9.00;41.00;;;;;;6274597;28;20962;-65
2022/01/29 15:54:49;;;;;;;6.30;4.80;;;8.80;41.20;;;;;;6275052;28;20489;-66
2022/01/29 15:57:53;;;;;;;8.90;5.63;;;8.80;41.50;;;;;;6274914;28;20470;-65
2022/01/29 16:00:59;;;;;;;6.67;4.80;;;8.70;41.60;;;;;;6279035;28;20496;-65
2022/01/29 16:04:02;;;;;;;9.50;5.87;;;8.50;41.80;;;;;;6299338;28;20546;-65
2022/01/29 16:07:05;;;;;;;6.80;5.00;;;8.40;42.00;;;;;;6299537;28;20441;-65
2022/01/29 16:10:09;;;;;;;10.33;5.70;;;8.30;42.40;;;;;;6299338;28;20453;-65
2022/01/29 16:13:13;;;;;;;9.63;6.37;;;8.20;42.70;;;;;;6292426;28;20477;-67
2022/01/29 16:16:17;;;;;;;9.83;7.00;;;8.10;43.00;;;;;;6274681;28;20771;-62
2022/01/29 16:19:20;;;;;;;8.33;6.30;;;8.00;43.50;;;;;;6274195;28;20523;-67
2022/01/29 16:22:23;;;;;;;11.67;6.80;;;7.90;43.80;;;;;;6274547;28;20470;-67
2022/01/29 16:25:27;;;;;;;11.30;7.30;;;7.80;44.00;;;;;;6274308;28;20466;-67
2022/01/29 16:28:32;;;;;;;7.80;6.90;;;7.70;44.10;;;;;;6295801;28;20466;-67
2022/01/29 16:31:35;;;;;;;9.43;6.87;;;7.70;44.40;;;;;;6299253;28;20476;-67
2022/01/29 16:34:39;;;;;;;11.63;9.53;;;7.60;44.90;;;;;;6298652;28;20469;-67
2022/01/29 16:37:42;;;;;;;27.77;15.43;;;7.60;44.90;;;;;;6299834;28;20472;-66
2022/01/29 16:40:46;;;;;;;54.30;29.70;;;7.50;45.20;;;;;;6303619;28;20465;-66
2022/01/29 16:43:50;;;;;;;72.30;36.50;;;7.30;45.40;;;;;;6303128;28;20807;-66
2022/01/29 16:46:53;;;;;;;25.00;14.10;;;7.30;45.70;;;;;;6303418;28;20480;-65
2022/01/29 16:49:57;;;;;;;19.30;11.60;;;7.30;46.10;;;;;;6304153;28;20470;-65
2022/01/29 16:53:00;;;;;;;13.10;9.60;;;7.20;46.70;;;;;;6303085;28;20480;-65
2022/01/29 16:56:04;;;;;;;13.57;9.10;;;7.20;46.90;;;;;;6302937;28;20822;-66
2022/01/29 16:59:08;;;;;;;13.90;9.40;;;7.10;47.10;;;;;;6303099;28;20491;-66